Time;durP1;ratioP1;P1;durP2;ratioP2;P2;SDS_P1;SDS_P2;PMS_P1;PMS_P2;Temp;Humidity;BMP_temperature;BMP_pressure;BME280_temperature;BME280_humidity;BME280_pressure;Samples;Min_cycle;Max_cycle;Signal;HPM_P1;HPM_P2
2021/04/23 00:01:00;;;;;;;4.38;2.22;;;6.90;70.80;;;;;;5089901;28;20027;-83
2021/04/23 00:03:34;;;;;;;3.20;1.67;;;6.90;70.90;;;;;;5090418;28;20027;-83
2021/04/23 00:06:12;;;;;;;3.10;1.75;;;6.90;71.20;;;;;;5089470;28;20021;-83
2021/04/23 00:08:38;;;;;;;4.15;2.03;;;6.90;71.50;;;;;;5088487;28;20370;-83
2021/04/23 00:11:06;;;;;;;6.95;2.97;;;6.80;71.70;;;;;;5087094;28;20028;-82
2021/04/23 00:13:32;;;;;;;5.28;2.20;;;6.80;72.10;;;;;;5089693;28;20027;-82
2021/04/23 00:15:58;;;;;;;5.78;2.85;;;6.70;72.30;;;;;;5084305;28;20042;-82
2021/04/23 00:18:24;;;;;;;4.72;2.60;;;6.70;72.70;;;;;;5086793;28;20048;-83
2021/04/23 00:20:50;;;;;;;4.72;2.15;;;6.70;73.00;;;;;;5053367;28;20392;-83
2021/04/23 00:23:16;;;;;;;7.15;2.63;;;6.60;72.90;;;;;;5051384;28;20029;-82
2021/04/23 00:25:42;;;;;;;5.35;2.70;;;6.60;72.90;;;;;;5051192;28;20025;-82
2021/04/23 00:28:11;;;;;;;9.00;2.50;;;6.60;73.10;;;;;;5050381;28;20082;-82
2021/04/23 00:30:39;;;;;;;2.67;1.95;;;6.60;73.20;;;;;;5046808;28;20127;-83
2021/04/23 00:33:06;;;;;;;6.55;2.40;;;6.50;73.20;;;;;;5051524;28;20020;-83
2021/04/23 00:35:35;;;;;;;4.45;2.15;;;6.50;73.40;;;;;;5053167;28;20029;-82
2021/04/23 00:38:09;;;;;;;4.30;2.22;;;6.40;73.60;;;;;;5048687;28;20021;-82
2021/04/23 00:40:39;;;;;;;5.70;2.80;;;6.40;73.80;;;;;;5040561;28;20385;-83
2021/04/23 00:43:05;;;;;;;5.47;2.10;;;6.40;74.10;;;;;;5056468;28;20028;-83
2021/04/23 00:45:31;;;;;;;3.30;1.92;;;6.40;74.20;;;;;;5056114;28;20529;-83
2021/04/23 00:48:00;;;;;;;4.93;2.05;;;6.30;74.40;;;;;;5057116;28;20025;-82
2021/04/23 00:50:30;;;;;;;4.78;1.88;;;6.30;75.40;;;;;;5052181;28;20028;-82
2021/04/23 00:52:56;;;;;;;5.63;2.40;;;6.30;74.70;;;;;;5055148;28;20496;-82
2021/04/23 00:55:22;;;;;;;5.07;2.33;;;6.30;74.90;;;;;;5053643;28;20127;-83
2021/04/23 00:57:48;;;;;;;4.18;2.13;;;6.30;75.00;;;;;;5055893;28;20017;-82
2021/04/23 01:00:14;;;;;;;4.35;1.90;;;6.30;75.00;;;;;;5073639;28;20032;-82
2021/04/23 01:02:39;;;;;;;4.53;2.50;;;6.20;75.10;;;;;;5074315;28;20032;-82
2021/04/23 01:05:06;;;;;;;4.82;2.47;;;6.20;75.30;;;;;;5074916;28;20028;-83
2021/04/23 01:07:32;;;;;;;5.45;1.73;;;6.20;75.50;;;;;;5051927;28;20025;-83
2021/04/23 01:09:57;;;;;;;5.43;2.03;;;6.20;75.80;;;;;;5072549;28;20031;-83
2021/04/23 01:12:23;;;;;;;5.05;1.88;;;6.10;75.90;;;;;;5050884;28;20016;-83
2021/04/23 01:14:49;;;;;;;5.45;2.10;;;6.10;76.10;;;;;;5055895;28;20021;-83
2021/04/23 01:17:14;;;;;;;3.15;1.58;;;6.10;76.20;;;;;;5055314;28;20111;-83
2021/04/23 01:19:40;;;;;;;7.82;2.10;;;6.10;76.50;;;;;;5083105;28;20074;-83
2021/04/23 01:22:05;;;;;;;5.55;2.28;;;6.00;76.80;;;;;;5094916;28;20028;-83
2021/04/23 01:24:33;;;;;;;5.82;2.25;;;6.00;77.20;;;;;;5081523;28;20383;-83
2021/04/23 01:26:58;;;;;;;5.10;2.28;;;5.90;77.70;;;;;;5085884;28;20024;-83
2021/04/23 01:29:25;;;;;;;10.15;3.10;;;5.80;78.00;;;;;;5089102;28;20031;-83
2021/04/23 01:31:54;;;;;;;7.35;2.42;;;5.70;78.50;;;;;;5091033;28;20118;-83
2021/04/23 01:34:29;;;;;;;4.53;2.42;;;5.50;78.90;;;;;;5091665;28;20051;-83
2021/04/23 01:36:55;;;;;;;5.00;2.70;;;5.50;79.50;;;;;;5088852;28;20049;-82
2021/04/23 01:39:24;;;;;;;5.00;2.65;;;5.50;79.90;;;;;;5093111;28;20016;-83
2021/04/23 01:41:53;;;;;;;7.25;2.75;;;5.50;79.70;;;;;;5086534;28;20023;-83
2021/04/23 01:44:19;;;;;;;6.20;2.00;;;5.60;79.50;;;;;;5092669;28;20028;-83
2021/04/23 01:46:45;;;;;;;4.20;2.28;;;5.50;79.40;;;;;;5093566;28;20062;-83
2021/04/23 01:49:14;;;;;;;4.35;2.90;;;5.60;79.50;;;;;;5093281;28;20023;-82
2021/04/23 01:51:43;;;;;;;5.90;2.20;;;5.60;79.50;;;;;;5091135;28;20013;-83
2021/04/23 01:54:10;;;;;;;2.95;1.83;;;5.60;79.60;;;;;;5087249;28;20503;-84
2021/04/23 01:56:36;;;;;;;6.35;3.75;;;5.60;79.70;;;;;;5091377;28;20468;-83
2021/04/23 01:59:02;;;;;;;5.85;2.75;;;5.50;79.70;;;;;;5090550;28;20021;-83
2021/04/23 02:01:28;;;;;;;3.95;1.65;;;5.50;80.60;;;;;;5092210;28;20024;-83
2021/04/23 02:03:53;;;;;;;5.20;2.10;;;5.40;80.20;;;;;;5091905;28;20703;-84
2021/04/23 02:06:19;;;;;;;4.43;1.92;;;5.30;80.70;;;;;;5089738;28;20510;-83
2021/04/23 02:08:45;;;;;;;5.35;2.05;;;5.30;80.80;;;;;;5089598;28;20020;-83
2021/04/23 02:11:16;;;;;;;5.22;2.10;;;5.40;80.60;;;;;;5089429;28;20471;-82
2021/04/23 02:13:46;;;;;;;7.15;2.72;;;5.30;80.60;;;;;;5092303;28;20070;-83
2021/04/23 02:16:14;;;;;;;7.95;2.80;;;5.20;81.00;;;;;;5058107;28;20017;-82
2021/04/23 02:18:40;;;;;;;4.68;2.83;;;5.20;81.00;;;;;;5085936;28;20119;-82
2021/04/23 02:21:07;;;;;;;5.65;2.88;;;5.30;81.00;;;;;;5054654;28;20074;-83
2021/04/23 02:23:33;;;;;;;5.45;2.20;;;5.20;80.90;;;;;;5070949;28;20090;-83
2021/04/23 02:25:58;;;;;;;4.40;2.50;;;5.20;81.00;;;;;;5068758;28;20103;-83
2021/04/23 02:28:24;;;;;;;7.43;3.17;;;5.20;81.10;;;;;;5053840;28;20028;-83
2021/04/23 02:30:55;;;;;;;5.60;3.25;;;5.20;81.30;;;;;;5071264;28;20027;-83
2021/04/23 02:33:22;;;;;;;6.00;2.47;;;5.20;81.40;;;;;;5054298;28;20028;-82
2021/04/23 02:35:50;;;;;;;6.78;2.80;;;5.20;81.50;;;;;;5054532;28;20116;-83
2021/04/23 02:38:16;;;;;;;5.80;2.40;;;5.20;81.70;;;;;;5051022;28;20021;-83
2021/04/23 02:40:42;;;;;;;5.95;2.45;;;5.10;81.70;;;;;;5048499;28;20074;-83
2021/04/23 02:43:15;;;;;;;6.22;2.72;;;5.10;82.00;;;;;;5048626;28;20064;-83
2021/04/23 02:45:43;;;;;;;5.13;2.55;;;5.10;82.30;;;;;;5072175;28;20044;-82
2021/04/23 02:48:12;;;;;;;3.72;2.47;;;5.00;82.30;;;;;;5054811;28;20567;-83
2021/04/23 02:50:41;;;;;;;4.60;2.65;;;5.00;82.40;;;;;;5052348;28;20031;-82
2021/04/23 02:53:07;;;;;;;6.20;3.35;;;5.00;82.50;;;;;;5047263;28;20358;-83
2021/04/23 02:55:33;;;;;;;5.43;2.35;;;5.00;82.50;;;;;;5051247;28;20025;-83
2021/04/23 02:58:09;;;;;;;4.30;2.33;;;5.00;82.60;;;;;;5065796;28;20500;-83
2021/04/23 03:00:38;;;;;;;4.28;2.55;;;5.00;82.60;;;;;;5050183;28;20025;-83
2021/04/23 03:03:06;;;;;;;4.32;2.30;;;4.90;82.60;;;;;;5054125;28;20107;-83
2021/04/23 03:05:33;;;;;;;6.00;2.97;;;4.90;82.60;;;;;;5072310;28;20100;-83
2021/04/23 03:08:00;;;;;;;6.00;3.80;;;4.90;82.80;;;;;;5069921;28;20025;-83
2021/04/23 03:10:36;;;;;;;5.13;3.30;;;4.90;83.20;;;;;;5064378;28;20025;-83
2021/04/23 03:13:08;;;;;;;5.63;2.67;;;4.90;83.40;;;;;;5054581;28;20107;-83
2021/04/23 03:15:33;;;;;;;5.13;2.97;;;4.80;83.50;;;;;;5052319;28;20090;-83
2021/04/23 03:18:00;;;;;;;6.95;3.00;;;4.80;83.80;;;;;;5052359;28;20489;-83
2021/04/23 03:20:27;;;;;;;7.32;2.95;;;4.80;83.90;;;;;;5072026;28;20438;-83
2021/04/23 03:22:53;;;;;;;6.38;3.55;;;4.80;84.00;;;;;;5054065;28;20067;-82
2021/04/23 03:25:19;;;;;;;9.18;3.90;;;4.70;83.90;;;;;;5051787;28;20024;-83
2021/04/23 03:27:45;;;;;;;10.20;3.90;;;4.60;84.40;;;;;;5050303;28;20032;-83
2021/04/23 03:30:16;;;;;;;6.88;3.22;;;4.50;85.00;;;;;;5047425;28;20427;-83
2021/04/23 03:32:42;;;;;;;11.13;5.20;;;4.50;85.10;;;;;;5051762;28;20020;-83
2021/04/23 03:35:08;;;;;;;9.88;5.88;;;4.60;85.40;;;;;;5053518;28;20027;-83
2021/04/23 03:37:34;;;;;;;8.32;4.82;;;4.50;86.30;;;;;;5051766;28;20027;-83
2021/04/23 03:40:00;;;;;;;7.45;4.57;;;4.50;86.40;;;;;;5068613;28;20095;-83
2021/04/23 03:42:25;;;;;;;5.78;3.90;;;4.50;86.40;;;;;;5068444;28;20062;-83
2021/04/23 03:44:51;;;;;;;9.20;4.20;;;4.50;86.30;;;;;;5047849;28;20504;-83
2021/04/23 03:47:17;;;;;;;26.67;4.28;;;4.40;86.50;;;;;;5070374;28;20031;-83
2021/04/23 03:49:43;;;;;;;5.28;2.50;;;4.30;86.60;;;;;;5054091;28;20479;-83
2021/04/23 03:52:09;;;;;;;4.85;2.15;;;4.30;86.90;;;;;;5067034;28;20104;-83
2021/04/23 03:54:36;;;;;;;5.25;2.38;;;4.30;87.00;;;;;;5052030;28;20111;-83
2021/04/23 03:57:02;;;;;;;7.18;2.45;;;4.30;87.00;;;;;;5048882;28;20009;-83
2021/04/23 03:59:28;;;;;;;5.10;2.75;;;4.20;87.10;;;;;;5051684;28;20070;-83
2021/04/23 04:01:53;;;;;;;6.35;3.40;;;4.10;87.30;;;;;;5052905;28;20543;-83
2021/04/23 04:04:19;;;;;;;6.20;3.45;;;4.20;87.60;;;;;;5053213;28;20021;-83
2021/04/23 04:06:46;;;;;;;6.00;3.70;;;4.20;87.70;;;;;;5053956;28;20066;-84
2021/04/23 04:09:12;;;;;;;4.78;2.45;;;4.20;87.70;;;;;;5048858;28;20074;-83
2021/04/23 04:11:38;;;;;;;15.10;1.88;;;4.20;87.50;;;;;;5046400;28;20388;-83
2021/04/23 04:14:04;;;;;;;7.90;1.88;;;4.20;87.50;;;;;;5049805;28;20017;-83
2021/04/23 04:16:29;;;;;;;2.75;1.60;;;4.20;87.60;;;;;;5070970;28;20024;-83
2021/04/23 04:18:55;;;;;;;23.45;1.52;;;4.20;87.60;;;;;;5074460;28;20051;-84
2021/04/23 04:21:20;;;;;;;54.17;2.25;;;4.20;87.60;;;;;;5076487;28;20161;-83
2021/04/23 04:23:46;;;;;;;2.97;1.20;;;4.20;87.80;;;;;;5077218;28;20023;-83
2021/04/23 04:26:12;;;;;;;4.10;2.15;;;4.00;87.90;;;;;;5054572;28;20492;-84
2021/04/23 04:28:37;;;;;;;4.80;3.00;;;3.90;88.80;;;;;;5056123;28;20062;-84
2021/04/23 04:31:03;;;;;;;7.72;3.50;;;3.90;89.50;;;;;;5072512;28;20024;-84
2021/04/23 04:33:28;;;;;;;6.45;3.30;;;3.90;89.70;;;;;;5056574;28;20020;-83
2021/04/23 04:35:54;;;;;;;5.82;3.28;;;3.80;90.00;;;;;;5056586;28;20028;-83
2021/04/23 04:38:20;;;;;;;5.68;3.00;;;3.90;90.10;;;;;;5070836;28;20777;-83
2021/04/23 04:40:47;;;;;;;5.30;2.30;;;4.00;90.00;;;;;;5053369;28;20024;-83
2021/04/23 04:43:14;;;;;;;7.63;2.70;;;4.20;89.90;;;;;;5055636;28;20559;-83
2021/04/23 04:45:41;;;;;;;4.50;2.38;;;4.30;89.60;;;;;;5056210;28;20430;-83
2021/04/23 04:48:08;;;;;;;5.43;2.33;;;4.40;89.40;;;;;;5074943;28;20448;-83
2021/04/23 04:50:41;;;;;;;4.30;2.40;;;4.50;89.30;;;;;;5043457;28;20036;-83
2021/04/23 04:53:08;;;;;;;5.05;3.00;;;4.40;89.10;;;;;;5055034;28;20035;-83
2021/04/23 04:55:38;;;;;;;5.25;2.80;;;4.40;89.40;;;;;;5070928;28;20063;-83
2021/04/23 04:58:06;;;;;;;6.32;2.78;;;4.40;89.60;;;;;;5073664;28;20531;-83
2021/04/23 05:00:32;;;;;;;5.03;2.60;;;4.30;89.80;;;;;;5054650;28;20037;-83
2021/04/23 05:02:59;;;;;;;8.05;3.35;;;4.40;90.10;;;;;;5049154;28;20025;-84
2021/04/23 05:05:26;;;;;;;6.18;3.38;;;4.50;90.20;;;;;;5069622;28;20031;-85
2021/04/23 05:07:52;;;;;;;5.85;3.08;;;4.50;90.30;;;;;;5069617;28;20072;-84
2021/04/23 05:10:18;;;;;;;4.32;3.03;;;4.60;90.20;;;;;;5054306;28;20039;-84
2021/04/23 05:12:44;;;;;;;10.95;3.60;;;4.70;90.20;;;;;;5070956;28;20096;-84
2021/04/23 05:15:10;;;;;;;4.20;2.67;;;4.80;90.20;;;;;;5045683;28;20032;-84
2021/04/23 05:17:37;;;;;;;4.05;2.65;;;4.90;90.20;;;;;;5055475;28;20404;-83
2021/04/23 05:20:07;;;;;;;6.93;3.63;;;4.90;90.30;;;;;;5069633;28;20397;-84
2021/04/23 05:22:33;;;;;;;;;;;5.00;90.30;;;;;;5058318;28;20025;-84
2021/04/23 05:24:58;;;;;;;4.35;2.45;;;5.00;90.20;;;;;;5054597;28;19951;-83
2021/04/23 05:27:24;;;;;;;6.45;3.30;;;5.00;90.20;;;;;;5053664;28;20491;-84
2021/04/23 05:29:50;;;;;;;4.50;2.95;;;5.00;90.30;;;;;;5053999;28;20029;-84
2021/04/23 05:32:15;;;;;;;3.65;2.40;;;5.10;90.30;;;;;;5053783;28;20024;-84
2021/04/23 05:34:41;;;;;;;5.38;3.63;;;5.20;90.30;;;;;;5053701;28;20029;-84
2021/04/23 05:37:09;;;;;;;5.13;2.95;;;5.20;90.40;;;;;;5053446;28;20443;-84
2021/04/23 05:39:37;;;;;;;5.05;3.17;;;5.30;90.40;;;;;;5057175;28;20025;-84
2021/04/23 05:42:03;;;;;;;5.50;2.70;;;5.40;90.40;;;;;;5063020;28;20020;-84
2021/04/23 05:44:28;;;;;;;5.50;2.85;;;5.40;90.50;;;;;;5063196;28;20016;-84
2021/04/23 05:46:54;;;;;;;6.72;3.60;;;5.50;90.60;;;;;;5072500;28;20028;-84
2021/04/23 05:49:19;;;;;;;7.25;3.10;;;5.60;90.60;;;;;;5073959;28;20024;-84
2021/04/23 05:51:45;;;;;;;6.70;3.33;;;5.60;90.60;;;;;;5073789;28;20029;-84
2021/04/23 05:54:10;;;;;;;6.35;3.50;;;5.60;90.60;;;;;;5075183;28;20108;-83
2021/04/23 05:56:36;;;;;;;8.52;4.03;;;5.60;90.70;;;;;;5073460;28;20032;-84
2021/04/23 05:59:02;;;;;;;7.50;4.68;;;5.70;91.00;;;;;;5061834;28;20013;-84
2021/04/23 06:01:28;;;;;;;7.53;3.75;;;5.70;91.30;;;;;;5063935;28;20487;-84
2021/04/23 06:03:53;;;;;;;13.57;7.13;;;5.70;91.30;;;;;;5063257;28;20040;-83
2021/04/23 06:06:19;;;;;;;15.73;6.45;;;5.80;92.10;;;;;;5059588;28;20481;-84
2021/04/23 06:08:44;;;;;;;9.43;5.57;;;5.80;92.70;;;;;;5053435;28;20029;-83
2021/04/23 06:11:21;;;;;;;9.15;5.05;;;5.90;92.60;;;;;;5053302;28;20025;-83
2021/04/23 06:13:46;;;;;;;8.60;5.13;;;5.90;92.50;;;;;;5058681;28;20020;-83
2021/04/23 06:16:12;;;;;;;9.57;4.63;;;6.00;92.60;;;;;;5073799;28;20143;-83
2021/04/23 06:18:39;;;;;;;9.35;5.57;;;6.00;92.60;;;;;;5071607;28;20095;-83
2021/04/23 06:21:06;;;;;;;8.07;4.10;;;6.10;92.70;;;;;;5039101;28;20462;-83
2021/04/23 06:23:32;;;;;;;5.43;3.60;;;6.10;92.60;;;;;;5037438;28;20025;-83
2021/04/23 06:25:59;;;;;;;7.13;4.40;;;6.20;92.70;;;;;;5036682;28;20021;-84
2021/04/23 06:28:24;;;;;;;7.72;3.40;;;6.30;92.60;;;;;;5054615;28;20457;-83
2021/04/23 06:30:50;;;;;;;12.05;5.72;;;6.40;92.50;;;;;;5055209;28;20029;-83
2021/04/23 06:33:18;;;;;;;10.88;4.80;;;6.50;92.90;;;;;;5048374;28;20543;-83
2021/04/23 06:35:46;;;;;;;11.90;5.55;;;6.50;93.00;;;;;;5042841;28;20462;-83
2021/04/23 06:38:11;;;;;;;10.88;5.15;;;6.60;93.20;;;;;;5043178;28;20094;-83
2021/04/23 06:40:37;;;;;;;12.18;5.53;;;6.70;93.20;;;;;;5035046;28;20064;-83
2021/04/23 06:43:04;;;;;;;7.38;5.07;;;6.80;93.20;;;;;;5032888;28;20478;-83
2021/04/23 06:45:30;;;;;;;8.63;4.60;;;6.90;93.00;;;;;;5034053;28;20029;-83
2021/04/23 06:47:56;;;;;;;7.55;4.35;;;7.00;93.00;;;;;;5044180;28;20025;-83
2021/04/23 06:50:23;;;;;;;7.40;4.25;;;7.10;93.00;;;;;;5042471;28;20064;-83
2021/04/23 06:52:49;;;;;;;6.07;3.97;;;7.10;92.90;;;;;;5033615;28;20022;-83
2021/04/23 06:55:17;;;;;;;5.43;3.53;;;7.20;93.00;;;;;;5033384;28;20428;-83
2021/04/23 06:57:43;;;;;;;7.88;4.05;;;7.30;93.00;;;;;;5034432;28;20021;-83
2021/04/23 07:00:12;;;;;;;7.10;4.13;;;7.40;92.70;;;;;;5033205;28;20483;-83
2021/04/23 07:02:38;;;;;;;9.60;4.15;;;7.40;92.60;;;;;;5042314;28;20028;-83
2021/04/23 07:05:06;;;;;;;8.02;3.90;;;7.50;92.80;;;;;;5031926;28;20025;-83
2021/04/23 07:07:31;;;;;;;6.60;3.83;;;7.60;92.70;;;;;;5043064;28;20078;-83
2021/04/23 07:09:57;;;;;;;7.75;3.97;;;7.70;92.70;;;;;;5032294;28;20029;-83
2021/04/23 07:12:23;;;;;;;8.38;4.13;;;7.70;92.70;;;;;;5032750;28;20028;-83
2021/04/23 07:14:49;;;;;;;8.90;3.92;;;7.90;92.70;;;;;;5032287;28;20025;-83
2021/04/23 07:17:15;;;;;;;6.25;4.18;;;7.90;92.70;;;;;;5034945;28;20025;-84
2021/04/23 07:19:41;;;;;;;6.10;3.85;;;8.00;92.50;;;;;;5062369;28;20055;-83
2021/04/23 07:22:06;;;;;;;7.57;3.15;;;8.10;92.40;;;;;;5072220;28;20052;-83
2021/04/23 07:24:35;;;;;;;8.40;3.22;;;8.20;92.20;;;;;;5072090;28;20558;-83
2021/04/23 07:27:01;;;;;;;6.38;2.90;;;8.30;92.10;;;;;;5055586;28;20488;-83
2021/04/23 07:29:27;;;;;;;6.60;2.47;;;8.30;92.00;;;;;;5052160;28;20023;-83
2021/04/23 07:31:52;;;;;;;6.97;2.55;;;8.40;91.70;;;;;;5068458;28;20498;-84
2021/04/23 07:34:18;;;;;;;6.13;2.88;;;8.40;91.60;;;;;;5071889;28;20036;-83
2021/04/23 07:36:43;;;;;;;5.97;1.90;;;8.40;91.40;;;;;;5071511;28;20020;-83
2021/04/23 07:39:10;;;;;;;5.45;1.95;;;8.50;91.30;;;;;;5071862;28;20020;-84
2021/04/23 07:41:38;;;;;;;4.35;2.03;;;8.50;91.10;;;;;;5071578;28;20028;-83
2021/04/23 07:44:05;;;;;;;9.10;2.58;;;8.60;91.00;;;;;;5069489;28;20036;-83
2021/04/23 07:46:31;;;;;;;7.20;2.28;;;8.60;90.80;;;;;;5082364;28;20090;-82
2021/04/23 07:48:56;;;;;;;5.45;1.80;;;8.70;90.70;;;;;;5074362;28;20480;-83
2021/04/23 07:51:22;;;;;;;6.65;1.52;;;8.90;90.50;;;;;;5080820;28;20028;-84
2021/04/23 07:53:47;;;;;;;8.27;2.05;;;9.00;90.30;;;;;;5064937;28;20027;-83
2021/04/23 07:56:13;;;;;;;4.72;1.17;;;8.90;89.50;;;;;;5071146;28;20020;-84
2021/04/23 07:58:38;;;;;;;3.35;1.20;;;8.90;89.20;;;;;;5070519;28;20027;-84
2021/04/23 08:01:04;;;;;;;8.82;1.55;;;8.90;89.10;;;;;;5083114;28;20020;-84
2021/04/23 08:03:31;;;;;;;6.72;1.38;;;9.00;87.80;;;;;;5088271;28;20165;-85
2021/04/23 08:05:57;;;;;;;8.20;2.00;;;9.00;87.30;;;;;;5071147;28;20047;-83
2021/04/23 08:08:22;;;;;;;6.38;1.25;;;9.00;86.30;;;;;;5070597;28;20399;-85
2021/04/23 08:10:48;;;;;;;6.50;1.27;;;9.10;86.40;;;;;;5070735;28;20039;-83
2021/04/23 08:13:13;;;;;;;3.22;1.10;;;9.10;86.40;;;;;;5085080;28;20024;-83
2021/04/23 08:15:39;;;;;;;3.50;1.13;;;9.10;86.40;;;;;;5071024;28;20028;-84
2021/04/23 08:18:05;;;;;;;4.07;1.00;;;9.10;86.30;;;;;;5068920;28;20111;-84
2021/04/23 08:20:31;;;;;;;5.20;1.33;;;9.10;86.10;;;;;;5033620;28;20087;-84
2021/04/23 08:22:57;;;;;;;3.97;1.40;;;9.10;86.10;;;;;;5037492;28;20061;-83
2021/04/23 08:25:23;;;;;;;7.53;1.23;;;9.10;86.10;;;;;;5053063;28;20396;-83
2021/04/23 08:27:50;;;;;;;4.28;1.35;;;9.20;86.10;;;;;;5037226;28;20472;-85
2021/04/23 08:30:18;;;;;;;7.95;2.90;;;9.30;86.10;;;;;;5047217;28;20021;-84
2021/04/23 08:32:43;;;;;;;13.15;2.90;;;9.40;84.20;;;;;;5049624;28;20025;-83
2021/04/23 08:35:10;;;;;;;10.05;2.55;;;9.50;84.20;;;;;;5041719;28;20396;-84
2021/04/23 08:37:38;;;;;;;7.97;2.03;;;9.60;84.00;;;;;;5047429;28;20024;-83
2021/04/23 08:40:06;;;;;;;8.52;1.70;;;9.70;82.80;;;;;;5052221;28;20036;-84
2021/04/23 08:42:32;;;;;;;7.40;1.90;;;9.80;82.70;;;;;;5044365;28;20075;-83
2021/04/23 08:44:58;;;;;;;6.40;1.27;;;9.90;82.20;;;;;;5044957;28;20464;-84
2021/04/23 08:47:25;;;;;;;6.38;1.20;;;10.10;82.40;;;;;;5045357;28;20480;-84
2021/04/23 08:49:51;;;;;;;3.42;1.25;;;10.30;82.30;;;;;;5069998;28;20071;-83
2021/04/23 08:52:17;;;;;;;5.35;1.52;;;10.40;82.10;;;;;;5052479;28;20472;-84
2021/04/23 08:54:44;;;;;;;6.45;1.63;;;10.50;81.90;;;;;;5046409;28;20025;-84
2021/04/23 08:57:09;;;;;;;7.18;1.70;;;10.70;80.80;;;;;;5027291;28;20082;-85
2021/04/23 08:59:35;;;;;;;4.18;1.83;;;10.80;79.80;;;;;;5033741;28;20013;-84
2021/04/23 09:02:02;;;;;;;5.93;1.52;;;11.00;79.10;;;;;;5034588;28;20021;-84
2021/04/23 09:04:27;;;;;;;6.60;1.13;;;11.20;78.10;;;;;;5049907;28;20017;-83
2021/04/23 09:07:05;;;;;;;5.80;1.73;;;11.40;78.10;;;;;;5037212;28;20036;-84
2021/04/23 09:09:40;;;;;;;5.05;1.20;;;11.70;77.50;;;;;;5025192;28;20587;-84
2021/04/23 09:12:16;;;;;;;7.43;1.70;;;11.70;76.50;;;;;;5031052;28;20031;-84
2021/04/23 09:14:42;;;;;;;6.65;1.40;;;11.70;76.50;;;;;;5025629;28;20025;-83
2021/04/23 09:17:07;;;;;;;5.93;2.03;;;11.60;76.70;;;;;;5034077;28;20021;-83
2021/04/23 09:19:35;;;;;;;5.50;1.58;;;11.60;75.40;;;;;;5075078;28;20040;-83
2021/04/23 09:22:29;;;;;;;6.93;1.60;;;11.60;75.40;;;;;;5084267;28;20023;-85
2021/04/23 09:25:08;;;;;;;5.93;1.60;;;11.40;74.20;;;;;;5099893;28;20064;-87
2021/04/23 09:27:40;;;;;;;8.82;2.35;;;11.40;73.80;;;;;;5074234;28;20107;-87
2021/04/23 09:30:09;;;;;;;8.18;1.85;;;11.30;73.30;;;;;;5074033;28;20037;-86
2021/04/23 09:32:37;;;;;;;9.43;2.50;;;11.30;74.00;;;;;;5066986;28;20032;-88
2021/04/23 09:35:05;;;;;;;8.57;1.90;;;11.50;73.60;;;;;;5065095;28;20017;-88
2021/04/23 09:37:41;;;;;;;7.75;2.42;;;11.60;73.40;;;;;;5075527;28;20086;-89
2021/04/23 09:40:11;;;;;;;5.72;1.70;;;11.90;73.60;;;;;;5061531;28;20040;-88
2021/04/23 09:42:45;;;;;;;5.65;1.60;;;12.20;73.80;;;;;;5062292;28;20029;-88
2021/04/23 09:45:11;;;;;;;6.65;2.08;;;12.70;76.00;;;;;;5074326;28;20538;-88
2021/04/23 09:47:37;;;;;;;6.43;2.33;;;13.50;71.70;;;;;;5067147;28;20047;-86
2021/04/23 09:50:05;;;;;;;7.43;1.35;;;15.90;63.40;;;;;;5055510;28;20078;-86
2021/04/23 09:52:30;;;;;;;5.63;1.80;;;18.00;58.30;;;;;;5071725;28;20032;-87
2021/04/23 09:54:59;;;;;;;5.43;1.23;;;19.40;55.20;;;;;;5084804;28;20119;-87
2021/04/23 09:57:36;;;;;;;3.60;1.23;;;20.10;51.50;;;;;;5073047;28;20020;-86
2021/04/23 10:00:26;;;;;;;4.95;1.33;;;21.20;49.90;;;;;;5073451;28;20028;-88
2021/04/23 10:02:58;;;;;;;5.45;1.55;;;22.80;46.50;;;;;;5061204;28;20025;-87
2021/04/23 10:05:31;;;;;;;4.13;1.40;;;23.20;44.30;;;;;;5073055;28;20024;-87
2021/04/23 10:07:57;;;;;;;6.50;1.42;;;22.40;44.70;;;;;;5072976;28;20115;-88
2021/04/23 10:10:25;;;;;;;4.20;1.17;;;23.30;43.90;;;;;;5076078;28;20452;-87
2021/04/23 10:12:59;;;;;;;3.72;1.70;;;23.80;42.30;;;;;;5086426;28;20089;-85
2021/04/23 10:15:34;;;;;;;4.22;1.13;;;24.70;43.30;;;;;;5077633;28;20012;-88
2021/04/23 10:18:12;;;;;;;3.42;1.17;;;25.80;42.10;;;;;;5088884;28;20024;-87
2021/04/23 10:20:46;;;;;;;2.58;0.93;;;26.90;40.40;;;;;;5053678;28;20025;-88
2021/04/23 10:23:18;;;;;;;4.07;1.20;;;28.10;39.60;;;;;;5046418;28;20018;-87
2021/04/23 10:25:44;;;;;;;3.30;1.05;;;28.80;37.80;;;;;;5052773;28;20027;-86
2021/04/23 10:28:12;;;;;;;4.65;1.17;;;26.90;37.80;;;;;;5072995;28;20495;-88
2021/04/23 10:30:42;;;;;;;3.78;1.10;;;27.10;39.20;;;;;;5052763;28;20025;-88
2021/04/23 10:33:13;;;;;;;3.55;0.80;;;28.20;37.50;;;;;;5053290;28;20013;-88
2021/04/23 10:35:41;;;;;;;5.80;1.77;;;29.10;36.10;;;;;;5046554;28;20017;-88
2021/04/23 10:38:11;;;;;;;4.50;1.70;;;28.60;34.00;;;;;;5048634;28;20020;-89
2021/04/23 10:40:38;;;;;;;4.90;1.70;;;28.00;32.10;;;;;;5052366;28;20025;-87
2021/04/23 10:43:18;;;;;;;4.75;1.40;;;28.20;33.20;;;;;;5067205;28;20025;-87
2021/04/23 10:45:58;;;;;;;2.58;1.38;;;28.60;33.00;;;;;;5050480;28;20031;-85
2021/04/23 10:48:30;;;;;;;5.60;1.75;;;29.40;33.20;;;;;;5052819;28;20024;-86
2021/04/23 10:50:59;;;;;;;3.47;1.02;;;30.50;32.60;;;;;;5051772;28;20177;-87
2021/04/23 10:53:25;;;;;;;5.15;1.63;;;31.60;31.60;;;;;;5053205;28;20024;-87
2021/04/23 10:55:50;;;;;;;6.95;2.35;;;31.70;30.30;;;;;;5051693;28;20012;-88
2021/04/23 10:58:38;;;;;;;5.85;1.85;;;31.90;28.10;;;;;;5035924;28;20028;-90
2021/04/23 11:01:24;;;;;;;4.20;1.63;;;32.10;28.40;;;;;;5034581;28;20029;-87
2021/04/23 11:04:08;;;;;;;3.35;1.40;;;32.80;28.90;;;;;;5035459;28;20029;-89
2021/04/23 11:06:59;;;;;;;5.93;1.70;;;32.80;28.90;;;;;;5050917;28;20043;-87
2021/04/23 11:09:26;;;;;;;5.78;1.67;;;33.10;28.90;;;;;;5052917;28;20050;-87
2021/04/23 11:12:10;;;;;;;4.20;1.60;;;33.10;29.20;;;;;;5050652;28;20630;-87
2021/04/23 11:14:37;;;;;;;5.30;1.33;;;34.00;28.50;;;;;;5052006;28;20020;-87
2021/04/23 11:17:32;;;;;;;2.88;1.02;;;34.30;28.00;;;;;;5046189;28;20025;-86
2021/04/23 11:19:58;;;;;;;2.28;1.00;;;32.70;28.60;;;;;;5066739;28;20040;-83
2021/04/23 11:22:26;;;;;;;3.47;1.20;;;32.80;30.00;;;;;;5052789;28;20020;-84
2021/04/23 11:25:18;;;;;;;3.25;1.13;;;33.70;29.10;;;;;;5045628;28;20490;-83
2021/04/23 11:28:02;;;;;;;3.85;1.30;;;34.40;29.00;;;;;;5068323;28;20021;-83
2021/04/23 11:30:53;;;;;;;4.00;1.33;;;34.50;28.30;;;;;;5064419;28;20017;-84
2021/04/23 11:33:48;;;;;;;3.28;1.20;;;35.00;28.40;;;;;;5054140;28;20028;-84
2021/04/23 11:36:25;;;;;;;5.85;1.90;;;35.20;28.40;;;;;;5049272;28;20127;-85
2021/04/23 11:39:11;;;;;;;5.93;1.60;;;35.30;27.20;;;;;;5047040;28;20362;-85
2021/04/23 11:41:57;;;;;;;3.45;1.45;;;34.80;26.70;;;;;;5050087;28;20055;-85
2021/04/23 11:45:08;;;;;;;3.42;1.27;;;34.90;27.20;;;;;;5070243;28;20028;-85
2021/04/23 11:47:41;;;;;;;3.58;1.80;;;35.80;27.10;;;;;;4977997;28;20135;-86
2021/04/23 11:50:32;;;;;;;3.55;1.50;;;34.20;25.70;;;;;;5050154;28;20165;-85
2021/04/23 11:52:59;;;;;;;3.55;1.55;;;34.10;27.00;;;;;;5024471;28;20017;-85
2021/04/23 11:55:33;;;;;;;2.72;1.30;;;34.50;27.20;;;;;;5054059;28;20032;-86
2021/04/23 11:58:10;;;;;;;5.97;1.77;;;34.90;26.80;;;;;;5046666;28;20014;-85
2021/04/23 12:00:39;;;;;;;5.47;1.63;;;35.00;26.30;;;;;;5051146;28;20299;-86
2021/04/23 12:03:09;;;;;;;3.70;1.70;;;35.30;26.70;;;;;;5050327;28;20025;-87
2021/04/23 12:05:55;;;;;;;3.88;1.70;;;35.40;26.10;;;;;;5048546;28;20036;-87
2021/04/23 12:08:24;;;;;;;4.22;1.50;;;35.40;26.00;;;;;;5026929;28;20017;-86
2021/04/23 12:10:50;;;;;;;;;;;35.80;26.70;;;;;;5053303;28;20031;-87
2021/04/23 12:13:18;;;;;;;3.75;1.77;;;35.40;26.50;;;;;;5045458;28;20292;-87
2021/04/23 12:15:46;;;;;;;3.22;1.58;;;33.30;26.50;;;;;;5049064;28;20025;-85
2021/04/23 12:18:14;;;;;;;2.72;1.30;;;32.90;27.60;;;;;;5049569;28;20056;-85
2021/04/23 12:20:40;;;;;;;5.13;1.73;;;33.10;27.90;;;;;;5045923;28;20087;-86
2021/04/23 12:23:08;;;;;;;5.75;1.70;;;33.60;27.50;;;;;;5052376;28;20119;-86
2021/04/23 12:25:45;;;;;;;5.47;2.20;;;33.40;26.30;;;;;;5046172;28;20395;-85
2021/04/23 12:28:37;;;;;;;5.38;2.42;;;31.90;25.80;;;;;;5053097;28;20029;-86
2021/04/23 12:31:05;;;;;;;4.80;1.80;;;29.90;26.30;;;;;;5031378;28;20033;-85
2021/04/23 12:33:38;;;;;;;;;;;28.90;29.10;;;;;;5034621;28;20037;-84
2021/04/23 12:36:25;;;;;;;2.83;1.50;;;29.10;29.30;;;;;;5033888;28;19904;-85
2021/04/23 12:38:53;;;;;;;2.85;1.40;;;29.40;28.70;;;;;;5034954;28;20018;-85
2021/04/23 12:41:23;;;;;;;3.15;1.40;;;30.50;27.90;;;;;;5051513;28;20025;-84
2021/04/23 12:43:52;;;;;;;4.18;1.60;;;32.00;28.00;;;;;;5037923;28;20139;-86
2021/04/23 12:46:30;;;;;;;3.60;1.75;;;32.60;27.30;;;;;;5055293;28;20017;-84
2021/04/23 12:49:02;;;;;;;4.07;1.85;;;32.30;26.10;;;;;;5034553;28;20017;-85
2021/04/23 12:51:28;;;;;;;5.05;1.80;;;30.90;26.50;;;;;;5034757;28;20484;-85
2021/04/23 12:53:55;;;;;;;5.45;1.67;;;30.30;27.20;;;;;;5055336;28;20029;-85
2021/04/23 12:56:27;;;;;;;4.85;1.60;;;30.10;28.10;;;;;;5037139;28;20021;-85
2021/04/23 12:58:52;;;;;;;3.78;1.52;;;30.60;28.40;;;;;;5055184;28;20022;-86
2021/04/23 13:01:20;;;;;;;3.78;1.80;;;30.70;27.70;;;;;;5037094;28;20024;-86